sensor_id;sensor_type;location;lat;lon;timestamp;pressure;altitude;pressure_sealevel;temperature
51149;BMP280;37210;50.058;8.688;2023-05-07T00:01:09;100172.78;;;18.76
51149;BMP280;37210;50.058;8.688;2023-05-07T00:03:37;100169.97;;;18.80
51149;BMP280;37210;50.058;8.688;2023-05-07T00:06:05;100158.25;;;18.61
51149;BMP280;37210;50.058;8.688;2023-05-07T00:08:32;100154.88;;;18.30
51149;BMP280;37210;50.058;8.688;2023-05-07T00:10:59;100175.91;;;18.62
51149;BMP280;37210;50.058;8.688;2023-05-07T00:13:28;100182.06;;;18.63
51149;BMP280;37210;50.058;8.688;2023-05-07T00:15:56;100182.97;;;18.62
51149;BMP280;37210;50.058;8.688;2023-05-07T00:18:24;100171.34;;;18.66
51149;BMP280;37210;50.058;8.688;2023-05-07T00:20:51;100164.38;;;18.63
51149;BMP280;37210;50.058;8.688;2023-05-07T00:23:18;100177.94;;;18.54
51149;BMP280;37210;50.058;8.688;2023-05-07T00:25:46;100173.78;;;18.72
51149;BMP280;37210;50.058;8.688;2023-05-07T00:28:13;100162.53;;;18.39
51149;BMP280;37210;50.058;8.688;2023-05-07T00:30:42;100120.41;;;18.05
51149;BMP280;37210;50.058;8.688;2023-05-07T00:33:10;100165.53;;;18.55
51149;BMP280;37210;50.058;8.688;2023-05-07T00:35:37;100143.88;;;18.44
51149;BMP280;37210;50.058;8.688;2023-05-07T00:38:05;100159.16;;;18.34
51149;BMP280;37210;50.058;8.688;2023-05-07T00:40:32;100149.50;;;18.33
51149;BMP280;37210;50.058;8.688;2023-05-07T00:43:00;100183.66;;;18.41
51149;BMP280;37210;50.058;8.688;2023-05-07T00:45:29;100167.56;;;18.48
51149;BMP280;37210;50.058;8.688;2023-05-07T00:47:59;100175.97;;;18.61
51149;BMP280;37210;50.058;8.688;2023-05-07T00:50:29;100166.94;;;18.38
51149;BMP280;37210;50.058;8.688;2023-05-07T00:52:57;100159.94;;;18.64
51149;BMP280;37210;50.058;8.688;2023-05-07T00:55:25;100151.97;;;18.11
51149;BMP280;37210;50.058;8.688;2023-05-07T00:57:53;100169.25;;;18.23
51149;BMP280;37210;50.058;8.688;2023-05-07T01:00:21;100159.88;;;18.39
51149;BMP280;37210;50.058;8.688;2023-05-07T01:02:48;100162.59;;;18.38
51149;BMP280;37210;50.058;8.688;2023-05-07T01:05:18;100149.84;;;18.22
51149;BMP280;37210;50.058;8.688;2023-05-07T01:07:49;100171.28;;;18.41
51149;BMP280;37210;50.058;8.688;2023-05-07T01:10:18;100165.19;;;18.11
51149;BMP280;37210;50.058;8.688;2023-05-07T01:12:48;100163.78;;;18.27
51149;BMP280;37210;50.058;8.688;2023-05-07T01:15:17;100106.72;;;18.19
51149;BMP280;37210;50.058;8.688;2023-05-07T01:17:45;100151.66;;;18.48
51149;BMP280;37210;50.058;8.688;2023-05-07T01:20:22;100150.38;;;18.32
51149;BMP280;37210;50.058;8.688;2023-05-07T01:22:53;100153.53;;;18.17
51149;BMP280;37210;50.058;8.688;2023-05-07T01:25:21;100155.28;;;18.46
51149;BMP280;37210;50.058;8.688;2023-05-07T01:27:52;100153.00;;;18.33
51149;BMP280;37210;50.058;8.688;2023-05-07T01:30:24;100145.41;;;18.23
51149;BMP280;37210;50.058;8.688;2023-05-07T01:32:56;100149.72;;;18.25
51149;BMP280;37210;50.058;8.688;2023-05-07T01:35:33;100152.50;;;18.22
51149;BMP280;37210;50.058;8.688;2023-05-07T01:38:06;100131.59;;;18.13
51149;BMP280;37210;50.058;8.688;2023-05-07T01:40:35;100160.50;;;18.21
51149;BMP280;37210;50.058;8.688;2023-05-07T01:43:03;100158.44;;;18.29
51149;BMP280;37210;50.058;8.688;2023-05-07T01:45:34;100157.94;;;18.18
51149;BMP280;37210;50.058;8.688;2023-05-07T01:48:02;100137.97;;;18.08
51149;BMP280;37210;50.058;8.688;2023-05-07T01:50:31;100155.56;;;18.09
51149;BMP280;37210;50.058;8.688;2023-05-07T01:53:00;100108.84;;;17.80
51149;BMP280;37210;50.058;8.688;2023-05-07T01:55:30;100145.38;;;17.97
51149;BMP280;37210;50.058;8.688;2023-05-07T01:57:58;100147.44;;;17.87
51149;BMP280;37210;50.058;8.688;2023-05-07T02:00:26;100144.75;;;17.89
51149;BMP280;37210;50.058;8.688;2023-05-07T02:02:53;100153.25;;;17.71
51149;BMP280;37210;50.058;8.688;2023-05-07T02:05:35;100103.06;;;17.09
51149;BMP280;37210;50.058;8.688;2023-05-07T02:08:23;100152.56;;;17.64
51149;BMP280;37210;50.058;8.688;2023-05-07T02:10:52;100152.63;;;17.63
51149;BMP280;37210;50.058;8.688;2023-05-07T02:13:20;100146.09;;;17.13
51149;BMP280;37210;50.058;8.688;2023-05-07T02:15:48;100155.72;;;17.46
51149;BMP280;37210;50.058;8.688;2023-05-07T02:18:17;100152.38;;;17.70
51149;BMP280;37210;50.058;8.688;2023-05-07T02:20:44;100150.31;;;17.52
51149;BMP280;37210;50.058;8.688;2023-05-07T02:23:11;100160.13;;;17.76
51149;BMP280;37210;50.058;8.688;2023-05-07T02:25:39;100147.91;;;17.72
51149;BMP280;37210;50.058;8.688;2023-05-07T02:28:07;100151.94;;;17.84
51149;BMP280;37210;50.058;8.688;2023-05-07T02:31:13;100147.84;;;17.75
51149;BMP280;37210;50.058;8.688;2023-05-07T02:33:41;100167.09;;;17.19
51149;BMP280;37210;50.058;8.688;2023-05-07T02:36:10;100128.09;;;17.27
51149;BMP280;37210;50.058;8.688;2023-05-07T02:38:48;100137.19;;;17.47
51149;BMP280;37210;50.058;8.688;2023-05-07T02:41:16;100162.38;;;17.90
51149;BMP280;37210;50.058;8.688;2023-05-07T02:43:45;100142.19;;;17.58
51149;BMP280;37210;50.058;8.688;2023-05-07T02:46:12;100147.84;;;17.75
51149;BMP280;37210;50.058;8.688;2023-05-07T02:48:45;100163.66;;;17.77
51149;BMP280;37210;50.058;8.688;2023-05-07T02:51:13;100112.97;;;17.61
51149;BMP280;37210;50.058;8.688;2023-05-07T02:53:42;100156.88;;;17.96
51149;BMP280;37210;50.058;8.688;2023-05-07T02:56:09;100141.47;;;17.81
51149;BMP280;37210;50.058;8.688;2023-05-07T02:58:37;100155.06;;;17.98
51149;BMP280;37210;50.058;8.688;2023-05-07T03:01:06;100149.00;;;17.65
51149;BMP280;37210;50.058;8.688;2023-05-07T03:03:47;100123.81;;;17.53
51149;BMP280;37210;50.058;8.688;2023-05-07T03:06:15;100148.28;;;17.88
51149;BMP280;37210;50.058;8.688;2023-05-07T03:08:42;100154.09;;;17.73
51149;BMP280;37210;50.058;8.688;2023-05-07T03:11:10;100161.53;;;17.58
51149;BMP280;37210;50.058;8.688;2023-05-07T03:13:37;100137.59;;;17.65
51149;BMP280;37210;50.058;8.688;2023-05-07T03:16:06;100153.94;;;17.46
51149;BMP280;37210;50.058;8.688;2023-05-07T03:18:34;100146.19;;;17.40
51149;BMP280;37210;50.058;8.688;2023-05-07T03:21:01;100146.13;;;17.43
51149;BMP280;37210;50.058;8.688;2023-05-07T03:23:29;100132.53;;;16.94
51149;BMP280;37210;50.058;8.688;2023-05-07T03:25:56;100149.13;;;17.30
51149;BMP280;37210;50.058;8.688;2023-05-07T03:28:23;100129.56;;;17.37
51149;BMP280;37210;50.058;8.688;2023-05-07T03:30:56;100146.13;;;17.42
51149;BMP280;37210;50.058;8.688;2023-05-07T03:33:25;100113.44;;;17.15
51149;BMP280;37210;50.058;8.688;2023-05-07T03:35:54;100117.78;;;17.18
51149;BMP280;37210;50.058;8.688;2023-05-07T03:38:24;100125.28;;;17.33
51149;BMP280;37210;50.058;8.688;2023-05-07T03:40:51;100118.44;;;16.95
51149;BMP280;37210;50.058;8.688;2023-05-07T03:43:19;100133.06;;;17.08
51149;BMP280;37210;50.058;8.688;2023-05-07T03:45:51;100130.13;;;16.87
51149;BMP280;37210;50.058;8.688;2023-05-07T03:48:23;100115.09;;;16.89
51149;BMP280;37210;50.058;8.688;2023-05-07T03:50:54;100141.38;;;16.93
51149;BMP280;37210;50.058;8.688;2023-05-07T03:53:23;100130.88;;;16.90
51149;BMP280;37210;50.058;8.688;2023-05-07T03:55:51;100141.91;;;16.73
51149;BMP280;37210;50.058;8.688;2023-05-07T03:58:18;100128.66;;;16.41
51149;BMP280;37210;50.058;8.688;2023-05-07T04:00:46;100125.88;;;16.46
51149;BMP280;37210;50.058;8.688;2023-05-07T04:03:21;100140.47;;;16.62
51149;BMP280;37210;50.058;8.688;2023-05-07T04:05:49;100149.00;;;16.36
51149;BMP280;37210;50.058;8.688;2023-05-07T04:08:18;100151.41;;;16.81
51149;BMP280;37210;50.058;8.688;2023-05-07T04:10:54;100117.53;;;16.64
51149;BMP280;37210;50.058;8.688;2023-05-07T04:13:23;100140.56;;;16.91
51149;BMP280;37210;50.058;8.688;2023-05-07T04:15:51;100138.00;;;16.88
51149;BMP280;37210;50.058;8.688;2023-05-07T04:18:19;100148.81;;;17.11
51149;BMP280;37210;50.058;8.688;2023-05-07T04:20:49;100148.13;;;17.35
51149;BMP280;37210;50.058;8.688;2023-05-07T04:23:18;100157.03;;;17.31
51149;BMP280;37210;50.058;8.688;2023-05-07T04:25:45;100144.97;;;17.21
51149;BMP280;37210;50.058;8.688;2023-05-07T04:28:32;100174.50;;;17.37
51149;BMP280;37210;50.058;8.688;2023-05-07T04:30:59;100183.69;;;17.24
51149;BMP280;37210;50.058;8.688;2023-05-07T04:33:31;100172.34;;;17.20
51149;BMP280;37210;50.058;8.688;2023-05-07T04:36:01;100184.38;;;17.30
51149;BMP280;37210;50.058;8.688;2023-05-07T04:38:32;100191.56;;;17.25
51149;BMP280;37210;50.058;8.688;2023-05-07T04:41:03;100187.91;;;17.29
51149;BMP280;37210;50.058;8.688;2023-05-07T04:43:32;100174.75;;;17.28
51149;BMP280;37210;50.058;8.688;2023-05-07T04:45:59;100170.81;;;17.12
51149;BMP280;37210;50.058;8.688;2023-05-07T04:48:28;100189.63;;;17.32
51149;BMP280;37210;50.058;8.688;2023-05-07T04:50:56;100189.09;;;17.19
51149;BMP280;37210;50.058;8.688;2023-05-07T04:53:23;100194.47;;;16.49
51149;BMP280;37210;50.058;8.688;2023-05-07T04:55:56;100182.13;;;16.85
51149;BMP280;37210;50.058;8.688;2023-05-07T04:58:27;100194.84;;;17.03
51149;BMP280;37210;50.058;8.688;2023-05-07T05:00:57;100191.16;;;16.76
51149;BMP280;37210;50.058;8.688;2023-05-07T05:03:24;100199.91;;;16.78
51149;BMP280;37210;50.058;8.688;2023-05-07T05:05:52;100198.97;;;16.81
51149;BMP280;37210;50.058;8.688;2023-05-07T05:08:21;100200.03;;;16.73
51149;BMP280;37210;50.058;8.688;2023-05-07T05:10:48;100186.69;;;16.78
51149;BMP280;37210;50.058;8.688;2023-05-07T05:13:17;100200.19;;;16.67
51149;BMP280;37210;50.058;8.688;2023-05-07T05:15:45;100195.56;;;16.77
51149;BMP280;37210;50.058;8.688;2023-05-07T05:18:13;100192.75;;;16.83
51149;BMP280;37210;50.058;8.688;2023-05-07T05:20:40;100198.75;;;16.88
51149;BMP280;37210;50.058;8.688;2023-05-07T05:23:08;100197.25;;;17.12
51149;BMP280;37210;50.058;8.688;2023-05-07T05:25:36;100183.63;;;16.95
51149;BMP280;37210;50.058;8.688;2023-05-07T05:28:05;100218.28;;;17.16
51149;BMP280;37210;50.058;8.688;2023-05-07T05:30:35;100199.41;;;16.96
51149;BMP280;37210;50.058;8.688;2023-05-07T05:33:02;100211.69;;;16.99
51149;BMP280;37210;50.058;8.688;2023-05-07T05:35:31;100218.00;;;16.93
51149;BMP280;37210;50.058;8.688;2023-05-07T05:38:02;100229.84;;;17.43
51149;BMP280;37210;50.058;8.688;2023-05-07T05:40:30;100225.03;;;17.26
51149;BMP280;37210;50.058;8.688;2023-05-07T05:42:58;100221.31;;;17.01
51149;BMP280;37210;50.058;8.688;2023-05-07T05:45:27;100204.22;;;17.45
51149;BMP280;37210;50.058;8.688;2023-05-07T05:48:02;100224.16;;;17.26
51149;BMP280;37210;50.058;8.688;2023-05-07T05:50:39;100218.75;;;17.30
51149;BMP280;37210;50.058;8.688;2023-05-07T05:53:06;100199.81;;;17.45
51149;BMP280;37210;50.058;8.688;2023-05-07T05:55:34;100226.91;;;17.23
51149;BMP280;37210;50.058;8.688;2023-05-07T05:58:02;100157.75;;;16.75
51149;BMP280;37210;50.058;8.688;2023-05-07T06:00:33;100214.16;;;17.37
51149;BMP280;37210;50.058;8.688;2023-05-07T06:03:05;100221.66;;;17.53
51149;BMP280;37210;50.058;8.688;2023-05-07T06:05:32;100222.66;;;17.48
51149;BMP280;37210;50.058;8.688;2023-05-07T06:07:59;100212.59;;;17.30
51149;BMP280;37210;50.058;8.688;2023-05-07T06:10:31;100218.50;;;17.39
51149;BMP280;37210;50.058;8.688;2023-05-07T06:13:00;100188.41;;;17.43
51149;BMP280;37210;50.058;8.688;2023-05-07T06:15:28;100223.53;;;17.50
51149;BMP280;37210;50.058;8.688;2023-05-07T06:17:57;100232.31;;;17.81
51149;BMP280;37210;50.058;8.688;2023-05-07T06:20:26;100222.22;;;17.94
51149;BMP280;37210;50.058;8.688;2023-05-07T06:22:54;100194.44;;;17.50
51149;BMP280;37210;50.058;8.688;2023-05-07T06:25:21;100229.69;;;17.80
51149;BMP280;37210;50.058;8.688;2023-05-07T06:27:49;100215.44;;;18.13
51149;BMP280;37210;50.058;8.688;2023-05-07T06:30:16;100226.84;;;18.15
51149;BMP280;37210;50.058;8.688;2023-05-07T06:32:44;100221.47;;;18.18
51149;BMP280;37210;50.058;8.688;2023-05-07T06:35:12;100230.75;;;18.59
51149;BMP280;37210;50.058;8.688;2023-05-07T06:37:42;100235.91;;;18.89
51149;BMP280;37210;50.058;8.688;2023-05-07T06:40:14;100231.81;;;19.05
51149;BMP280;37210;50.058;8.688;2023-05-07T06:42:43;100231.91;;;19.02
51149;BMP280;37210;50.058;8.688;2023-05-07T06:45:23;100217.59;;;18.82
51149;BMP280;37210;50.058;8.688;2023-05-07T06:47:53;100235.44;;;19.28
51149;BMP280;37210;50.058;8.688;2023-05-07T06:50:20;100230.63;;;19.14
51149;BMP280;37210;50.058;8.688;2023-05-07T06:52:50;100228.38;;;18.51
51149;BMP280;37210;50.058;8.688;2023-05-07T06:55:17;100238.72;;;18.31
51149;BMP280;37210;50.058;8.688;2023-05-07T06:57:45;100229.34;;;18.75
51149;BMP280;37210;50.058;8.688;2023-05-07T07:00:14;100240.78;;;19.01
51149;BMP280;37210;50.058;8.688;2023-05-07T07:02:50;100227.16;;;18.87
51149;BMP280;37210;50.058;8.688;2023-05-07T07:05:20;100231.50;;;18.90
51149;BMP280;37210;50.058;8.688;2023-05-07T07:07:50;100213.09;;;18.59
51149;BMP280;37210;50.058;8.688;2023-05-07T07:10:19;100231.72;;;18.82
51149;BMP280;37210;50.058;8.688;2023-05-07T07:12:50;100240.50;;;19.10
51149;BMP280;37210;50.058;8.688;2023-05-07T07:15:20;100246.09;;;19.26
51149;BMP280;37210;50.058;8.688;2023-05-07T07:17:48;100233.28;;;18.89
51149;BMP280;37210;50.058;8.688;2023-05-07T07:20:16;100215.09;;;19.28
51149;BMP280;37210;50.058;8.688;2023-05-07T07:22:45;100188.59;;;19.03
51149;BMP280;37210;50.058;8.688;2023-05-07T07:25:14;100243.16;;;19.10
51149;BMP280;37210;50.058;8.688;2023-05-07T07:27:42;100196.75;;;19.22
51149;BMP280;37210;50.058;8.688;2023-05-07T07:30:11;100220.75;;;18.68
51149;BMP280;37210;50.058;8.688;2023-05-07T07:32:41;100247.03;;;19.25
51149;BMP280;37210;50.058;8.688;2023-05-07T07:35:08;100255.59;;;19.58
51149;BMP280;37210;50.058;8.688;2023-05-07T07:37:37;100245.78;;;19.10
51149;BMP280;37210;50.058;8.688;2023-05-07T07:40:06;100244.09;;;19.08
51149;BMP280;37210;50.058;8.688;2023-05-07T07:42:36;100242.06;;;19.16
51149;BMP280;37210;50.058;8.688;2023-05-07T07:45:05;100219.13;;;18.89
51149;BMP280;37210;50.058;8.688;2023-05-07T07:47:38;100191.13;;;19.56
51149;BMP280;37210;50.058;8.688;2023-05-07T07:50:07;100232.38;;;19.64
51149;BMP280;37210;50.058;8.688;2023-05-07T07:52:35;100250.38;;;19.56
51149;BMP280;37210;50.058;8.688;2023-05-07T07:55:04;100209.88;;;19.02
51149;BMP280;37210;50.058;8.688;2023-05-07T07:57:33;100246.09;;;19.52
51149;BMP280;37210;50.058;8.688;2023-05-07T08:00:03;100234.06;;;19.42
51149;BMP280;37210;50.058;8.688;2023-05-07T08:02:42;100253.28;;;19.49
51149;BMP280;37210;50.058;8.688;2023-05-07T08:05:14;100260.34;;;19.24
51149;BMP280;37210;50.058;8.688;2023-05-07T08:07:43;100260.47;;;19.70
51149;BMP280;37210;50.058;8.688;2023-05-07T08:10:13;100247.25;;;19.91
51149;BMP280;37210;50.058;8.688;2023-05-07T08:12:48;100251.19;;;19.34
51149;BMP280;37210;50.058;8.688;2023-05-07T08:15:17;100252.47;;;19.47
51149;BMP280;37210;50.058;8.688;2023-05-07T08:17:45;100241.94;;;19.68
51149;BMP280;37210;50.058;8.688;2023-05-07T08:20:13;100255.69;;;19.55
51149;BMP280;37210;50.058;8.688;2023-05-07T08:22:42;100196.34;;;19.57
51149;BMP280;37210;50.058;8.688;2023-05-07T08:25:09;100256.72;;;19.75
51149;BMP280;37210;50.058;8.688;2023-05-07T08:27:37;100235.13;;;19.84
51149;BMP280;37210;50.058;8.688;2023-05-07T08:30:07;100258.34;;;19.79
51149;BMP280;37210;50.058;8.688;2023-05-07T08:32:37;100250.75;;;19.46
51149;BMP280;37210;50.058;8.688;2023-05-07T08:35:05;100248.31;;;20.09
51149;BMP280;37210;50.058;8.688;2023-05-07T08:37:33;100246.97;;;19.99
51149;BMP280;37210;50.058;8.688;2023-05-07T08:40:01;100241.00;;;19.92
51149;BMP280;37210;50.058;8.688;2023-05-07T08:42:35;100232.47;;;19.61
51149;BMP280;37210;50.058;8.688;2023-05-07T08:45:09;100238.34;;;19.92
51149;BMP280;37210;50.058;8.688;2023-05-07T08:47:44;100247.66;;;19.81
51149;BMP280;37210;50.058;8.688;2023-05-07T08:50:21;100237.03;;;20.04
51149;BMP280;37210;50.058;8.688;2023-05-07T08:52:49;100193.53;;;20.30
51149;BMP280;37210;50.058;8.688;2023-05-07T08:55:18;100244.22;;;20.01
51149;BMP280;37210;50.058;8.688;2023-05-07T08:57:47;100248.28;;;20.34
51149;BMP280;37210;50.058;8.688;2023-05-07T09:00:23;100244.59;;;20.38
51149;BMP280;37210;50.058;8.688;2023-05-07T09:02:55;100244.31;;;19.99
51149;BMP280;37210;50.058;8.688;2023-05-07T09:05:23;100198.28;;;20.22
51149;BMP280;37210;50.058;8.688;2023-05-07T09:07:51;100240.50;;;20.29
51149;BMP280;37210;50.058;8.688;2023-05-07T09:10:20;100236.56;;;20.39
51149;BMP280;37210;50.058;8.688;2023-05-07T09:12:50;100235.69;;;20.39
51149;BMP280;37210;50.058;8.688;2023-05-07T09:15:18;100241.09;;;20.79
51149;BMP280;37210;50.058;8.688;2023-05-07T09:17:46;100240.31;;;20.55
51149;BMP280;37210;50.058;8.688;2023-05-07T09:20:16;100193.00;;;20.63
51149;BMP280;37210;50.058;8.688;2023-05-07T09:22:44;100208.84;;;21.08
51149;BMP280;37210;50.058;8.688;2023-05-07T09:25:15;100223.47;;;21.18
51149;BMP280;37210;50.058;8.688;2023-05-07T09:27:54;100208.00;;;21.46
51149;BMP280;37210;50.058;8.688;2023-05-07T09:30:22;100231.72;;;21.32
51149;BMP280;37210;50.058;8.688;2023-05-07T09:32:50;100221.03;;;22.28
51149;BMP280;37210;50.058;8.688;2023-05-07T09:35:22;100180.06;;;21.57
51149;BMP280;37210;50.058;8.688;2023-05-07T09:37:59;100231.13;;;22.03
51149;BMP280;37210;50.058;8.688;2023-05-07T09:40:30;100229.72;;;22.86
51149;BMP280;37210;50.058;8.688;2023-05-07T09:43:09;100226.44;;;22.81
51149;BMP280;37210;50.058;8.688;2023-05-07T09:45:47;100235.47;;;22.96
51149;BMP280;37210;50.058;8.688;2023-05-07T09:48:18;100222.88;;;22.64
51149;BMP280;37210;50.058;8.688;2023-05-07T09:50:51;100191.25;;;22.02
51149;BMP280;37210;50.058;8.688;2023-05-07T09:53:29;100200.63;;;22.65
51149;BMP280;37210;50.058;8.688;2023-05-07T09:56:00;100216.63;;;23.16
51149;BMP280;37210;50.058;8.688;2023-05-07T09:58:31;100218.91;;;23.24
51149;BMP280;37210;50.058;8.688;2023-05-07T10:01:02;100144.31;;;22.35
51149;BMP280;37210;50.058;8.688;2023-05-07T10:03:31;100173.47;;;23.25
51149;BMP280;37210;50.058;8.688;2023-05-07T10:06:07;100200.22;;;22.37
51149;BMP280;37210;50.058;8.688;2023-05-07T10:08:37;100186.25;;;23.19
51149;BMP280;37210;50.058;8.688;2023-05-07T10:11:07;100161.25;;;23.04
51149;BMP280;37210;50.058;8.688;2023-05-07T10:13:37;100211.75;;;23.24
51149;BMP280;37210;50.058;8.688;2023-05-07T10:16:08;100210.50;;;23.48
51149;BMP280;37210;50.058;8.688;2023-05-07T10:18:42;100184.00;;;22.94
51149;BMP280;37210;50.058;8.688;2023-05-07T10:21:18;100176.72;;;23.47
51149;BMP280;37210;50.058;8.688;2023-05-07T10:23:50;100203.00;;;23.05
51149;BMP280;37210;50.058;8.688;2023-05-07T10:26:23;100215.53;;;22.69
51149;BMP280;37210;50.058;8.688;2023-05-07T10:29:01;100194.25;;;23.53
51149;BMP280;37210;50.058;8.688;2023-05-07T10:31:57;100200.34;;;23.05
51149;BMP280;37210;50.058;8.688;2023-05-07T10:34:36;100182.38;;;23.24
51149;BMP280;37210;50.058;8.688;2023-05-07T10:37:08;100200.31;;;23.39
51149;BMP280;37210;50.058;8.688;2023-05-07T10:39:39;100191.63;;;23.51
51149;BMP280;37210;50.058;8.688;2023-05-07T10:42:13;100190.84;;;23.34
51149;BMP280;37210;50.058;8.688;2023-05-07T10:44:47;100196.81;;;23.54
51149;BMP280;37210;50.058;8.688;2023-05-07T10:47:23;100199.31;;;23.57
51149;BMP280;37210;50.058;8.688;2023-05-07T10:50:20;100184.47;;;24.47
51149;BMP280;37210;50.058;8.688;2023-05-07T10:56:25;100197.38;;;23.76
51149;BMP280;37210;50.058;8.688;2023-05-07T10:59:35;100179.94;;;24.18
51149;BMP280;37210;50.058;8.688;2023-05-07T11:03:07;100183.63;;;24.31
51149;BMP280;37210;50.058;8.688;2023-05-07T11:06:10;100188.97;;;23.84
51149;BMP280;37210;50.058;8.688;2023-05-07T11:08:54;100191.19;;;23.43
51149;BMP280;37210;50.058;8.688;2023-05-07T11:11:45;100194.66;;;23.94
51149;BMP280;37210;50.058;8.688;2023-05-07T11:14:44;100191.31;;;24.37
51149;BMP280;37210;50.058;8.688;2023-05-07T11:17:18;100198.66;;;24.49
51149;BMP280;37210;50.058;8.688;2023-05-07T11:19:55;100165.28;;;24.25
51149;BMP280;37210;50.058;8.688;2023-05-07T11:22:37;100172.44;;;24.40
51149;BMP280;37210;50.058;8.688;2023-05-07T11:25:25;100153.19;;;24.79
51149;BMP280;37210;50.058;8.688;2023-05-07T11:28:07;100144.03;;;24.53
51149;BMP280;37210;50.058;8.688;2023-05-07T11:30:46;100179.72;;;24.68
51149;BMP280;37210;50.058;8.688;2023-05-07T11:33:18;100177.41;;;24.30
51149;BMP280;37210;50.058;8.688;2023-05-07T11:35:49;100164.81;;;24.48
51149;BMP280;37210;50.058;8.688;2023-05-07T11:38:19;100145.16;;;24.49
51149;BMP280;37210;50.058;8.688;2023-05-07T11:40:52;100167.09;;;24.24
51149;BMP280;37210;50.058;8.688;2023-05-07T11:43:20;100094.38;;;24.33
51149;BMP280;37210;50.058;8.688;2023-05-07T11:45:48;100169.59;;;24.27
51149;BMP280;37210;50.058;8.688;2023-05-07T11:48:16;100128.41;;;24.61
51149;BMP280;37210;50.058;8.688;2023-05-07T11:50:50;100158.63;;;24.01
51149;BMP280;37210;50.058;8.688;2023-05-07T11:53:18;100165.53;;;24.20
51149;BMP280;37210;50.058;8.688;2023-05-07T11:55:46;100168.63;;;24.44
51149;BMP280;37210;50.058;8.688;2023-05-07T11:58:21;100152.47;;;24.61
51149;BMP280;37210;50.058;8.688;2023-05-07T12:00:50;100164.16;;;24.29
51149;BMP280;37210;50.058;8.688;2023-05-07T12:03:18;100160.13;;;24.06
51149;BMP280;37210;50.058;8.688;2023-05-07T12:05:45;100151.38;;;24.03
51149;BMP280;37210;50.058;8.688;2023-05-07T12:08:14;100137.00;;;23.90
51149;BMP280;37210;50.058;8.688;2023-05-07T12:10:41;100148.09;;;24.44
51149;BMP280;37210;50.058;8.688;2023-05-07T12:13:15;100127.22;;;23.89
51149;BMP280;37210;50.058;8.688;2023-05-07T12:15:43;100161.34;;;23.52
51149;BMP280;37210;50.058;8.688;2023-05-07T12:18:11;100155.25;;;23.81
51149;BMP280;37210;50.058;8.688;2023-05-07T12:20:40;100147.19;;;24.14
51149;BMP280;37210;50.058;8.688;2023-05-07T12:23:08;100153.28;;;24.61
51149;BMP280;37210;50.058;8.688;2023-05-07T12:25:36;100142.88;;;24.12
51149;BMP280;37210;50.058;8.688;2023-05-07T12:28:05;100119.16;;;23.90
51149;BMP280;37210;50.058;8.688;2023-05-07T12:30:38;100146.47;;;24.42
51149;BMP280;37210;50.058;8.688;2023-05-07T12:33:06;100142.59;;;24.61
51149;BMP280;37210;50.058;8.688;2023-05-07T12:35:36;100143.78;;;24.26
51149;BMP280;37210;50.058;8.688;2023-05-07T12:38:08;100138.09;;;24.48
51149;BMP280;37210;50.058;8.688;2023-05-07T12:40:39;100136.59;;;24.58
51149;BMP280;37210;50.058;8.688;2023-05-07T12:43:07;100133.34;;;24.53
51149;BMP280;37210;50.058;8.688;2023-05-07T12:45:44;100133.63;;;24.33
51149;BMP280;37210;50.058;8.688;2023-05-07T12:48:12;100133.47;;;24.66
51149;BMP280;37210;50.058;8.688;2023-05-07T12:50:40;100113.34;;;24.29
51149;BMP280;37210;50.058;8.688;2023-05-07T12:53:08;100127.91;;;24.69
51149;BMP280;37210;50.058;8.688;2023-05-07T12:55:42;100118.09;;;24.69
51149;BMP280;37210;50.058;8.688;2023-05-07T12:58:15;100132.56;;;24.51
51149;BMP280;37210;50.058;8.688;2023-05-07T13:00:47;100124.03;;;24.74
51149;BMP280;37210;50.058;8.688;2023-05-07T13:03:23;100117.19;;;24.54
51149;BMP280;37210;50.058;8.688;2023-05-07T13:05:51;100116.00;;;24.44
51149;BMP280;37210;50.058;8.688;2023-05-07T13:08:27;100119.50;;;24.90
51149;BMP280;37210;50.058;8.688;2023-05-07T13:10:57;100118.34;;;24.80
51149;BMP280;37210;50.058;8.688;2023-05-07T13:13:29;100114.06;;;24.62
51149;BMP280;37210;50.058;8.688;2023-05-07T13:15:58;100112.63;;;24.86
51149;BMP280;37210;50.058;8.688;2023-05-07T13:18:26;100121.28;;;24.76
51149;BMP280;37210;50.058;8.688;2023-05-07T13:20:54;100120.88;;;24.68
51149;BMP280;37210;50.058;8.688;2023-05-07T13:23:22;100112.25;;;24.92
51149;BMP280;37210;50.058;8.688;2023-05-07T13:25:50;100125.63;;;24.63
51149;BMP280;37210;50.058;8.688;2023-05-07T13:28:20;100115.22;;;24.72
51149;BMP280;37210;50.058;8.688;2023-05-07T13:30:47;100101.28;;;24.97
51149;BMP280;37210;50.058;8.688;2023-05-07T13:33:16;100094.88;;;25.13
51149;BMP280;37210;50.058;8.688;2023-05-07T13:35:44;100101.94;;;24.86
51149;BMP280;37210;50.058;8.688;2023-05-07T13:38:12;100101.53;;;24.63
51149;BMP280;37210;50.058;8.688;2023-05-07T13:40:41;100098.00;;;25.06
51149;BMP280;37210;50.058;8.688;2023-05-07T13:43:09;100096.19;;;24.63
51149;BMP280;37210;50.058;8.688;2023-05-07T13:45:36;100102.31;;;24.80
51149;BMP280;37210;50.058;8.688;2023-05-07T13:48:04;100087.19;;;24.93
51149;BMP280;37210;50.058;8.688;2023-05-07T13:50:33;100087.81;;;25.55
51149;BMP280;37210;50.058;8.688;2023-05-07T13:53:01;100075.00;;;25.46
51149;BMP280;37210;50.058;8.688;2023-05-07T13:55:29;100084.34;;;24.96
51149;BMP280;37210;50.058;8.688;2023-05-07T13:57:57;100084.56;;;25.21
51149;BMP280;37210;50.058;8.688;2023-05-07T14:00:27;100080.81;;;25.52
51149;BMP280;37210;50.058;8.688;2023-05-07T14:02:56;100088.47;;;25.58
51149;BMP280;37210;50.058;8.688;2023-05-07T14:05:23;100088.00;;;25.09
51149;BMP280;37210;50.058;8.688;2023-05-07T14:07:54;100079.88;;;25.11
51149;BMP280;37210;50.058;8.688;2023-05-07T14:10:22;100077.34;;;24.80
51149;BMP280;37210;50.058;8.688;2023-05-07T14:12:49;100087.78;;;25.12
51149;BMP280;37210;50.058;8.688;2023-05-07T14:15:18;100080.53;;;25.14
51149;BMP280;37210;50.058;8.688;2023-05-07T14:17:46;100066.84;;;25.19
51149;BMP280;37210;50.058;8.688;2023-05-07T14:20:13;100079.28;;;24.92